Time;durP1;ratioP1;P1;durP2;ratioP2;P2;SDS_P1;SDS_P2;PMS_P1;PMS_P2;Temp;Humidity;BMP_temperature;BMP_pressure;BME280_temperature;BME280_humidity;BME280_pressure;Samples;Min_cycle;Max_cycle;Signal;HPM_P1;HPM_P2
2022/01/20 00:01:11;;;;;;;11.95;2.30;;;3.60;99.90;;;;;;5075511;28;19935;-81
2022/01/20 00:03:40;;;;;;;16.85;3.38;;;3.40;99.90;;;;;;5089715;28;20048;-81
2022/01/20 00:27:52;;;;;;;17.13;2.38;;;3.60;99.90;;;;;;5070346;28;20482;-82
2022/01/20 00:30:39;;;;;;;14.85;2.50;;;4.20;99.90;;;;;;5051102;28;20044;-82
2022/01/20 00:38:23;;;;;;;15.32;2.22;;;3.50;99.90;;;;;;5074204;28;20055;-82
2022/01/20 00:40:50;;;;;;;15.30;2.05;;;4.10;99.90;;;;;;5072922;28;20044;-82
2022/01/20 00:43:16;;;;;;;10.27;1.67;;;3.70;99.90;;;;;;5089663;28;20059;-82
2022/01/20 00:45:41;;;;;;;12.43;1.92;;;3.40;99.90;;;;;;5088240;28;20048;-82
2022/01/20 00:48:07;;;;;;;10.80;1.73;;;3.30;99.90;;;;;;5083192;28;20123;-81
2022/01/20 00:50:38;;;;;;;14.23;2.30;;;3.30;99.90;;;;;;5062656;28;20044;-82
2022/01/20 00:53:05;;;;;;;10.82;1.50;;;3.30;99.90;;;;;;5071929;28;20106;-81
2022/01/20 00:55:31;;;;;;;12.43;1.85;;;3.40;99.90;;;;;;5092189;27;20460;-82
2022/01/20 00:57:57;;;;;;;8.43;2.55;;;3.60;99.90;;;;;;5100419;28;20039;-82
2022/01/20 01:00:23;;;;;;;10.98;1.63;;;4.10;99.90;;;;;;5095269;27;20046;-82
2022/01/20 01:02:48;;;;;;;11.68;2.08;;;3.90;99.90;;;;;;5092985;28;20052;-82
2022/01/20 01:05:15;;;;;;;12.48;1.80;;;3.40;99.90;;;;;;5093115;28;20063;-82
2022/01/20 01:10:09;;;;;;;10.60;1.85;;;3.30;99.90;;;;;;5092452;28;19926;-82
2022/01/20 01:12:49;;;;;;;9.88;1.70;;;3.30;99.90;;;;;;5093044;28;20056;-82
2022/01/20 01:15:25;;;;;;;11.43;2.33;;;3.30;99.90;;;;;;5072969;28;20043;-82
2022/01/20 01:23:20;;;;;;;14.85;1.80;;;3.10;99.90;;;;;;5091800;28;20047;-81
2022/01/20 01:25:46;;;;;;;15.90;2.20;;;3.60;99.90;;;;;;5092533;28;20047;-82
2022/01/20 01:28:11;;;;;;;18.52;2.92;;;3.50;99.90;;;;;;5075465;28;20134;-81
2022/01/20 01:33:22;;;;;;;15.77;2.72;;;3.10;99.90;;;;;;5092629;28;20055;-82
2022/01/20 01:35:55;;;;;;;11.50;2.08;;;4.20;99.90;;;;;;5076364;28;20061;-81
2022/01/20 01:38:35;;;;;;;14.15;1.77;;;3.10;99.90;;;;;;5060140;28;20048;-82
2022/01/20 01:41:03;;;;;;;16.33;2.10;;;3.10;99.90;;;;;;5093089;28;20091;-82
2022/01/20 01:43:31;;;;;;;18.70;2.17;;;3.20;99.90;;;;;;5078287;28;20047;-82
2022/01/20 01:45:57;;;;;;;13.95;2.05;;;3.00;99.90;;;;;;5111539;28;20092;-82
2022/01/20 01:48:23;;;;;;;13.15;2.28;;;3.00;99.90;;;;;;5112424;28;20058;-82
2022/01/20 01:50:48;;;;;;;15.85;2.10;;;3.00;99.90;;;;;;5112576;28;20043;-82
2022/01/20 01:53:16;;;;;;;13.07;1.80;;;3.00;99.90;;;;;;5111919;28;20104;-81
2022/01/20 01:55:42;;;;;;;10.43;1.80;;;3.00;99.90;;;;;;5095619;28;20107;-82
2022/01/20 01:58:08;;;;;;;13.60;2.08;;;3.10;99.90;;;;;;5113307;28;20446;-81
2022/01/20 02:00:35;;;;;;;14.25;2.42;;;3.20;99.90;;;;;;5092135;28;20048;-81
2022/01/20 02:03:01;;;;;;;15.90;2.10;;;3.30;99.90;;;;;;5095761;28;20059;-82
2022/01/20 02:05:27;;;;;;;;;;;3.50;99.90;;;;;;5106354;28;20054;-81
2022/01/20 02:21:01;;;;;;;7.93;1.33;;;3.40;99.90;;;;;;5094455;28;20480;-80
2022/01/20 02:23:27;;;;;;;6.75;1.77;;;3.40;99.90;;;;;;5111978;28;20059;-80
2022/01/20 02:25:53;;;;;;;5.72;1.23;;;3.30;99.90;;;;;;5095781;28;20498;-80
2022/01/20 02:28:19;;;;;;;9.95;1.73;;;3.70;99.90;;;;;;5103394;28;20156;-81
2022/01/20 02:30:45;;;;;;;11.57;1.88;;;3.20;99.90;;;;;;5077057;28;20083;-80
2022/01/20 02:33:17;;;;;;;10.68;1.25;;;3.10;99.90;;;;;;5080982;27;20044;-80
2022/01/20 02:35:46;;;;;;;10.90;1.35;;;3.20;99.90;;;;;;5116558;27;20126;-80
2022/01/20 02:38:18;;;;;;;7.75;1.25;;;3.00;99.90;;;;;;5116513;27;20488;-80
2022/01/20 02:46:02;;;;;;;4.15;1.20;;;3.30;99.90;;;;;;5108110;28;20090;-80
2022/01/20 02:48:28;;;;;;;16.38;2.08;;;3.10;99.90;;;;;;5081469;27;20043;-81
2022/01/20 02:50:54;;;;;;;14.15;1.80;;;3.20;99.90;;;;;;5081408;27;20050;-81
2022/01/20 02:53:29;;;;;;;12.32;2.00;;;3.20;99.90;;;;;;5097956;27;20086;-81
2022/01/20 02:55:55;;;;;;;11.02;1.70;;;3.30;99.90;;;;;;5115865;27;20059;-79
2022/01/20 02:58:20;;;;;;;6.47;1.20;;;3.20;99.90;;;;;;5115653;27;20103;-80
2022/01/20 03:00:46;;;;;;;6.93;1.20;;;3.30;99.90;;;;;;5064289;28;20048;-79
2022/01/20 03:03:13;;;;;;;8.10;1.65;;;3.50;99.90;;;;;;5078966;28;20051;-80
2022/01/20 03:05:38;;;;;;;7.75;1.00;;;3.20;99.90;;;;;;5078469;28;20563;-80
2022/01/20 03:08:04;;;;;;;6.72;1.30;;;3.20;99.90;;;;;;5104271;27;20103;-80
2022/01/20 03:10:31;;;;;;;5.13;1.10;;;3.20;99.90;;;;;;5114835;27;20096;-78
2022/01/20 03:12:56;;;;;;;;;;;3.50;99.90;;;;;;5115364;27;20399;-80
2022/01/20 03:15:23;;;;;;;11.00;1.30;;;3.30;99.90;;;;;;5096860;27;19919;-79
2022/01/20 03:17:49;;;;;;;6.53;1.42;;;3.10;99.90;;;;;;5094855;27;20734;-79
2022/01/20 03:20:15;;;;;;;11.93;1.80;;;3.10;99.90;;;;;;5095312;28;20704;-79
2022/01/20 03:22:41;;;;;;;10.25;2.55;;;3.00;99.90;;;;;;5078101;28;20050;-79
2022/01/20 03:25:07;;;;;;;16.80;1.98;;;3.00;99.90;;;;;;5078078;28;20047;-79
2022/01/20 03:27:33;;;;;;;10.10;1.58;;;2.90;99.90;;;;;;5080435;27;20494;-80
2022/01/20 03:29:58;;;;;;;10.55;1.58;;;3.50;99.90;;;;;;5113522;27;20082;-79
2022/01/20 03:32:24;;;;;;;11.32;1.77;;;2.80;99.90;;;;;;5114200;27;20188;-80
2022/01/20 03:34:50;;;;;;;14.57;2.28;;;2.80;99.90;;;;;;5114862;27;20099;-79
2022/01/20 03:37:16;;;;;;;21.08;2.60;;;2.80;99.90;;;;;;5098414;27;20130;-79
2022/01/20 03:39:42;;;;;;;11.20;1.80;;;2.80;99.90;;;;;;5095780;27;20227;-79
2022/01/20 03:42:08;;;;;;;9.55;1.83;;;2.80;99.90;;;;;;5115265;27;20051;-79
2022/01/20 03:44:33;;;;;;;18.45;2.90;;;2.80;99.90;;;;;;5079503;27;20047;-79
2022/01/20 03:47:02;;;;;;;18.60;2.88;;;3.70;99.90;;;;;;5097752;27;20056;-79
2022/01/20 03:49:39;;;;;;;22.20;2.97;;;2.80;99.90;;;;;;5098002;28;20039;-79
2022/01/20 03:52:06;;;;;;;17.90;2.42;;;2.90;99.90;;;;;;5094478;28;20051;-78
2022/01/20 03:54:31;;;;;;;17.85;2.65;;;2.90;99.90;;;;;;5100650;28;20095;-79
2022/01/20 03:56:57;;;;;;;22.60;2.80;;;3.50;99.90;;;;;;5094397;28;20095;-79
2022/01/20 03:59:23;;;;;;;17.15;3.50;;;3.40;99.90;;;;;;5076057;28;20055;-79
2022/01/20 04:01:49;;;;;;;13.75;2.83;;;2.90;99.90;;;;;;5076560;28;20073;-79
2022/01/20 04:04:15;;;;;;;16.85;2.78;;;2.90;99.90;;;;;;5109136;27;20490;-78
2022/01/20 04:06:40;;;;;;;19.98;2.80;;;2.90;99.90;;;;;;5096812;27;20050;-79
2022/01/20 04:09:06;;;;;;;18.65;2.80;;;2.90;99.90;;;;;;5096315;27;20041;-79
2022/01/20 04:11:32;;;;;;;26.90;4.05;;;2.80;99.90;;;;;;5096381;27;20470;-79
2022/01/20 04:13:58;;;;;;;21.40;3.42;;;2.90;99.90;;;;;;5095982;27;20165;-79
2022/01/20 04:16:49;;;;;;;20.52;3.75;;;2.80;99.90;;;;;;5114337;27;20051;-78
2022/01/20 04:19:15;;;;;;;17.25;2.50;;;2.80;99.90;;;;;;5093814;28;20059;-79
2022/01/20 04:21:42;;;;;;;16.40;2.63;;;2.90;99.90;;;;;;5099982;27;20050;-78
2022/01/20 04:24:08;;;;;;;17.15;3.08;;;2.90;99.90;;;;;;5113678;27;20138;-78
2022/01/20 04:26:35;;;;;;;19.92;3.08;;;2.90;99.90;;;;;;5113129;27;20047;-78
2022/01/20 04:29:02;;;;;;;19.05;2.83;;;2.80;99.90;;;;;;5112706;27;20100;-77
2022/01/20 04:31:30;;;;;;;33.00;4.20;;;2.90;99.90;;;;;;5113188;27;20046;-81
2022/01/20 04:33:57;;;;;;;21.77;3.45;;;2.90;99.90;;;;;;5090743;28;20484;-80
2022/01/20 04:36:29;;;;;;;14.68;2.47;;;2.90;99.90;;;;;;5093766;28;20055;-80
2022/01/20 04:38:55;;;;;;;24.77;2.75;;;3.40;99.90;;;;;;5110170;27;20054;-80
2022/01/20 04:41:22;;;;;;;18.63;3.00;;;3.50;99.90;;;;;;5114135;27;20047;-80
2022/01/20 04:43:48;;;;;;;15.38;4.22;;;2.90;99.90;;;;;;5112707;27;20120;-80
2022/01/20 04:59:24;;;;;;;14.43;2.13;;;2.80;99.90;;;;;;5112194;27;20055;-82
2022/01/20 05:01:49;;;;;;;10.70;1.98;;;3.00;99.90;;;;;;5112798;27;20201;-81
2022/01/20 05:04:15;;;;;;;20.05;2.40;;;3.70;99.90;;;;;;5106614;28;20051;-81
2022/01/20 05:06:43;;;;;;;15.52;2.60;;;3.40;99.90;;;;;;5092885;28;20618;-81
2022/01/20 05:09:11;;;;;;;13.00;2.17;;;3.30;99.90;;;;;;5099870;27;20080;-81
2022/01/20 05:11:42;;;;;;;13.93;2.80;;;2.60;99.90;;;;;;5094013;28;20507;-81
2022/01/20 05:14:08;;;;;;;10.68;2.33;;;2.60;99.90;;;;;;5095719;27;20054;-81
2022/01/20 05:16:34;;;;;;;10.88;2.10;;;2.50;99.90;;;;;;5112392;27;20039;-81
2022/01/20 05:18:59;;;;;;;14.60;2.22;;;2.50;99.90;;;;;;5113501;27;20047;-82
2022/01/20 05:21:25;;;;;;;16.70;2.63;;;2.50;99.90;;;;;;5113289;27;20047;-81
2022/01/20 05:23:51;;;;;;;15.05;2.10;;;3.20;99.90;;;;;;5095685;28;20297;-82
2022/01/20 05:26:16;;;;;;;16.10;2.58;;;2.90;99.90;;;;;;5112421;27;20099;-81
2022/01/20 05:28:42;;;;;;;18.58;2.20;;;2.50;99.90;;;;;;5094645;27;20078;-82
2022/01/20 05:31:08;;;;;;;13.88;2.35;;;2.50;99.90;;;;;;5110006;28;20553;-82
2022/01/20 05:33:33;;;;;;;12.13;1.95;;;3.20;99.90;;;;;;5103535;28;20052;-81
2022/01/20 05:35:59;;;;;;;12.90;2.88;;;2.50;99.90;;;;;;5096143;27;20055;-81
2022/01/20 05:38:25;;;;;;;16.65;2.83;;;2.40;99.90;;;;;;5096418;28;20055;-82
2022/01/20 05:40:51;;;;;;;12.40;2.30;;;2.60;99.90;;;;;;5108550;28;20036;-82
2022/01/20 05:43:17;;;;;;;19.35;2.47;;;2.50;99.90;;;;;;5092675;28;20047;-81
2022/01/20 05:45:42;;;;;;;13.48;2.60;;;2.50;99.90;;;;;;5090585;28;20043;-82
2022/01/20 05:48:14;;;;;;;13.38;2.00;;;2.50;99.90;;;;;;5092838;28;20047;-82
2022/01/20 05:50:41;;;;;;;15.65;2.35;;;2.40;99.90;;;;;;5059542;28;20079;-82
2022/01/20 05:53:07;;;;;;;13.15;2.28;;;2.40;99.90;;;;;;5075985;28;20107;-81
2022/01/20 05:55:33;;;;;;;9.30;2.08;;;3.20;99.90;;;;;;5093643;28;20055;-82
2022/01/20 05:57:59;;;;;;;;;;;2.50;99.90;;;;;;5084051;28;20059;-82
2022/01/20 06:00:25;;;;;;;7.88;1.88;;;2.90;99.90;;;;;;5098679;28;19927;-82
2022/01/20 06:05:38;;;;;;;10.35;2.03;;;2.50;99.90;;;;;;5068014;28;20133;-81
2022/01/20 06:08:04;;;;;;;7.53;1.95;;;3.20;99.90;;;;;;5100039;27;20047;-82
2022/01/20 06:10:31;;;;;;;;;;;2.50;99.90;;;;;;5099435;27;20073;-82
2022/01/20 06:12:57;;;;;;;9.90;1.73;;;2.40;99.90;;;;;;5096354;28;19969;-82
2022/01/20 06:15:23;;;;;;;10.95;1.98;;;2.40;99.90;;;;;;5101650;27;20492;-82
2022/01/20 06:17:49;;;;;;;8.20;1.45;;;2.30;99.90;;;;;;5112294;28;20051;-82
2022/01/20 06:20:14;;;;;;;8.02;1.65;;;2.20;99.90;;;;;;5108419;28;20055;-81
2022/01/20 06:22:41;;;;;;;8.77;1.92;;;2.20;99.90;;;;;;5090538;27;20491;-81
2022/01/20 06:25:07;;;;;;;;;;;2.10;99.90;;;;;;5099111;27;20062;-81
2022/01/20 06:27:33;;;;;;;6.82;1.50;;;2.10;99.90;;;;;;5114953;27;19975;-82
2022/01/20 06:29:59;;;;;;;17.15;2.67;;;2.10;99.90;;;;;;5107669;27;20180;-82
2022/01/20 06:32:25;;;;;;;7.43;1.67;;;2.70;99.90;;;;;;5094604;28;20551;-82
2022/01/20 06:34:51;;;;;;;11.18;2.15;;;2.60;99.90;;;;;;5093659;27;20044;-82
2022/01/20 06:37:17;;;;;;;15.20;2.42;;;2.00;99.90;;;;;;5098879;27;20039;-82
2022/01/20 06:39:43;;;;;;;17.73;2.47;;;2.00;99.90;;;;;;5098524;27;20051;-81
2022/01/20 06:42:09;;;;;;;16.33;2.30;;;2.00;99.90;;;;;;5101673;27;20048;-84
2022/01/20 06:44:34;;;;;;;;;;;2.60;99.90;;;;;;5098394;27;20058;-81
2022/01/20 06:47:00;;;;;;;12.93;2.20;;;2.00;99.90;;;;;;5115327;27;19923;-81
2022/01/20 06:49:26;;;;;;;10.32;2.72;;;2.60;99.90;;;;;;5102556;27;20134;-82
2022/01/20 06:51:52;;;;;;;20.08;3.00;;;2.30;99.90;;;;;;5078024;28;20127;-82
2022/01/20 06:54:18;;;;;;;14.70;2.13;;;2.60;99.90;;;;;;5095259;28;20506;-82
2022/01/20 06:56:44;;;;;;;11.00;3.00;;;2.20;99.90;;;;;;5088620;28;20066;-81
2022/01/20 06:59:11;;;;;;;18.70;2.22;;;2.20;99.90;;;;;;5100729;27;20500;-81
2022/01/20 07:01:38;;;;;;;12.80;2.03;;;2.20;99.90;;;;;;5099139;27;20066;-82
2022/01/20 07:04:04;;;;;;;10.43;2.28;;;2.00;99.90;;;;;;5110376;28;20048;-81
2022/01/20 07:06:30;;;;;;;14.23;2.38;;;2.00;99.90;;;;;;5096022;28;20185;-81
2022/01/20 07:08:56;;;;;;;10.82;1.95;;;2.20;99.90;;;;;;5061502;28;20047;-81
2022/01/20 07:11:21;;;;;;;14.77;2.10;;;1.80;99.90;;;;;;5103499;28;20039;-81
2022/01/20 07:13:47;;;;;;;13.07;1.70;;;1.80;99.90;;;;;;5084876;27;20043;-82
2022/01/20 07:16:13;;;;;;;14.45;2.30;;;1.80;99.90;;;;;;5108079;27;20043;-83
2022/01/20 07:18:38;;;;;;;14.32;2.38;;;1.80;99.90;;;;;;5089178;27;20126;-82
2022/01/20 07:21:04;;;;;;;9.25;1.80;;;2.50;99.90;;;;;;5087063;27;20062;-80
2022/01/20 07:23:30;;;;;;;11.30;2.28;;;1.80;99.90;;;;;;5078794;28;20051;-82
2022/01/20 07:25:56;;;;;;;14.20;2.33;;;2.00;99.90;;;;;;5094669;28;20104;-82
2022/01/20 07:28:22;;;;;;;12.13;2.00;;;2.90;99.90;;;;;;5078280;28;20136;-80
2022/01/20 07:30:47;;;;;;;12.25;2.03;;;1.80;99.90;;;;;;5093785;28;20151;-81
2022/01/20 07:33:13;;;;;;;13.73;2.15;;;1.70;99.90;;;;;;5099384;27;20384;-82
2022/01/20 07:35:39;;;;;;;9.35;2.55;;;2.50;99.90;;;;;;5088321;27;20043;-80
2022/01/20 07:38:06;;;;;;;15.35;2.67;;;1.60;99.90;;;;;;5114874;27;20078;-79
2022/01/20 07:40:32;;;;;;;7.93;1.80;;;1.60;99.90;;;;;;5081340;27;20095;-80
2022/01/20 07:42:59;;;;;;;14.27;2.30;;;2.20;99.90;;;;;;5114784;27;20051;-80
2022/01/20 07:45:26;;;;;;;14.00;2.30;;;1.70;99.90;;;;;;5096938;27;20119;-81
2022/01/20 07:47:51;;;;;;;11.35;2.38;;;1.50;99.90;;;;;;5114325;27;20054;-81
2022/01/20 07:50:17;;;;;;;14.18;2.25;;;1.40;99.90;;;;;;5108520;27;20039;-81
2022/01/20 07:52:43;;;;;;;15.10;2.75;;;1.40;99.90;;;;;;5096512;27;20068;-80
2022/01/20 07:55:09;;;;;;;18.30;2.53;;;1.40;99.90;;;;;;5124672;27;20089;-80
2022/01/20 07:57:35;;;;;;;14.73;2.00;;;1.40;99.90;;;;;;5111516;28;20753;-80
2022/01/20 08:00:02;;;;;;;15.73;2.38;;;1.40;99.90;;;;;;5109672;28;20130;-81
2022/01/20 08:02:28;;;;;;;11.27;2.15;;;1.50;99.90;;;;;;5094558;28;20078;-81
2022/01/20 08:04:54;;;;;;;14.15;3.53;;;1.60;99.90;;;;;;5094212;28;20043;-81
2022/01/20 08:07:20;;;;;;;23.73;2.45;;;1.90;99.90;;;;;;5094823;28;20101;-80
2022/01/20 08:09:49;;;;;;;14.05;2.17;;;1.60;99.90;;;;;;5079632;27;20082;-81
2022/01/20 08:12:15;;;;;;;18.30;2.42;;;1.70;99.90;;;;;;5098870;28;20705;-80
2022/01/20 08:14:41;;;;;;;14.70;3.08;;;1.70;99.90;;;;;;5076203;28;20121;-82
2022/01/20 08:17:07;;;;;;;9.50;1.92;;;2.30;99.90;;;;;;5093482;28;20089;-81
2022/01/20 08:19:32;;;;;;;16.90;2.17;;;2.20;99.90;;;;;;5094331;28;20047;-81
2022/01/20 08:21:58;;;;;;;12.85;2.92;;;1.70;99.90;;;;;;5093798;28;20055;-81
2022/01/20 08:24:24;;;;;;;11.43;2.28;;;1.70;99.90;;;;;;5076638;28;20109;-81
2022/01/20 08:26:49;;;;;;;10.15;2.08;;;1.70;99.90;;;;;;5093436;28;20058;-81
2022/01/20 08:29:15;;;;;;;10.98;2.13;;;1.80;99.90;;;;;;5099727;28;20057;-81
2022/01/20 08:31:41;;;;;;;9.75;1.77;;;2.50;99.90;;;;;;5106869;27;20091;-82
2022/01/20 08:34:06;;;;;;;9.85;1.95;;;1.90;99.90;;;;;;5095471;27;20154;-82
2022/01/20 08:36:32;;;;;;;15.55;3.17;;;2.70;99.90;;;;;;5103341;27;20055;-85
2022/01/20 08:38:58;;;;;;;15.82;2.47;;;2.20;99.90;;;;;;5091093;27;20731;-83
2022/01/20 08:41:23;;;;;;;17.73;2.50;;;2.10;99.90;;;;;;5085570;28;20475;-83
2022/01/20 08:43:49;;;;;;;9.45;1.85;;;2.10;99.90;;;;;;5058647;28;20047;-82
2022/01/20 08:46:19;;;;;;;14.75;2.30;;;2.20;99.90;;;;;;5076035;28;20630;-83
2022/01/20 08:48:45;;;;;;;19.52;2.30;;;2.20;99.90;;;;;;5093912;28;20078;-83
2022/01/20 08:51:11;;;;;;;12.85;2.20;;;2.30;99.90;;;;;;5101223;27;20039;-82
2022/01/20 08:53:37;;;;;;;10.25;2.50;;;2.30;99.90;;;;;;5093261;28;20059;-82
2022/01/20 08:56:03;;;;;;;19.83;2.58;;;2.30;99.90;;;;;;5113085;27;20039;-83
2022/01/20 08:58:29;;;;;;;13.27;2.45;;;2.30;99.90;;;;;;5104080;27;20091;-82
2022/01/20 09:00:55;;;;;;;20.67;3.55;;;2.20;99.90;;;;;;5098800;28;20066;-83
2022/01/20 09:03:22;;;;;;;11.52;2.28;;;2.20;99.90;;;;;;5086485;27;20058;-82
2022/01/20 09:05:49;;;;;;;15.95;2.28;;;2.20;99.90;;;;;;5081618;27;20054;-82
2022/01/20 09:08:14;;;;;;;18.67;2.42;;;2.20;99.90;;;;;;5098178;27;20293;-82
2022/01/20 09:10:44;;;;;;;11.82;2.20;;;2.20;99.90;;;;;;5099592;28;20047;-83
2022/01/20 09:15:55;;;;;;;13.02;2.40;;;2.30;99.90;;;;;;5110258;27;20507;-82
2022/01/20 09:18:23;;;;;;;15.55;2.72;;;2.30;99.90;;;;;;5107259;27;20115;-83
2022/01/20 09:20:50;;;;;;;18.60;2.13;;;2.30;99.90;;;;;;5087525;27;20042;-83
2022/01/20 09:23:16;;;;;;;17.38;3.05;;;3.00;99.90;;;;;;5100792;28;20052;-82
2022/01/20 09:25:42;;;;;;;;;;;2.50;99.90;;;;;;5087739;28;20058;-83
2022/01/20 09:28:09;;;;;;;11.65;2.17;;;2.60;99.90;;;;;;5093930;28;19923;-83
2022/01/20 09:30:37;;;;;;;15.77;2.55;;;2.90;99.90;;;;;;5092368;27;20303;-83
2022/01/20 09:33:24;;;;;;;12.90;2.42;;;2.80;99.90;;;;;;5092391;28;20101;-83
2022/01/20 09:35:50;;;;;;;12.02;2.15;;;2.80;99.90;;;;;;5088198;28;20048;-82
2022/01/20 09:38:16;;;;;;;24.15;3.42;;;2.80;99.90;;;;;;5074976;28;20053;-83
2022/01/20 09:40:43;;;;;;;10.57;2.03;;;3.10;99.90;;;;;;5075588;28;20048;-82
2022/01/20 09:43:11;;;;;;;16.50;2.47;;;3.00;99.90;;;;;;5103040;28;20113;-83
2022/01/20 09:45:38;;;;;;;12.45;2.40;;;2.50;99.90;;;;;;5091132;28;20132;-83
2022/01/20 09:48:04;;;;;;;15.82;2.55;;;2.40;99.90;;;;;;5091779;28;20488;-82
2022/01/20 09:50:30;;;;;;;17.73;3.15;;;2.30;99.90;;;;;;5100803;28;20066;-83
2022/01/20 09:52:59;;;;;;;15.45;2.15;;;2.30;99.90;;;;;;5091036;28;20484;-83
2022/01/20 09:55:25;;;;;;;13.43;2.25;;;2.60;99.90;;;;;;5087038;28;20086;-83
2022/01/20 09:57:51;;;;;;;13.85;2.22;;;2.50;99.90;;;;;;5091377;28;20074;-84
2022/01/20 10:00:18;;;;;;;11.73;1.92;;;2.60;99.90;;;;;;5101607;28;20055;-85
2022/01/20 10:03:05;;;;;;;12.60;1.70;;;2.70;99.90;;;;;;5105348;28;20044;-83
2022/01/20 10:05:37;;;;;;;11.95;1.70;;;2.70;99.90;;;;;;5107927;28;20050;-81
2022/01/20 10:08:04;;;;;;;6.72;1.60;;;2.90;99.90;;;;;;5112278;28;20134;-81
2022/01/20 10:10:44;;;;;;;9.27;1.48;;;2.70;99.90;;;;;;5112331;28;20099;-80
2022/01/20 10:13:10;;;;;;;11.40;1.58;;;2.60;99.90;;;;;;5079413;28;20056;-80
2022/01/20 10:15:36;;;;;;;;;;;2.60;99.90;;;;;;5111515;28;20043;-80
2022/01/20 10:18:07;;;;;;;10.85;2.08;;;2.50;99.90;;;;;;5106672;28;20265;-80
2022/01/20 10:20:33;;;;;;;8.73;1.60;;;2.50;99.90;;;;;;5092609;28;20036;-80
2022/01/20 10:22:59;;;;;;;6.90;1.40;;;2.50;99.90;;;;;;5092090;28;20546;-80
2022/01/20 10:25:25;;;;;;;10.50;1.90;;;2.40;99.90;;;;;;5092390;28;20047;-80
2022/01/20 10:27:53;;;;;;;10.20;1.80;;;2.40;99.90;;;;;;5092668;28;20047;-80
2022/01/20 10:30:23;;;;;;;6.80;1.23;;;2.40;99.90;;;;;;5086361;28;20042;-80
2022/01/20 10:32:54;;;;;;;11.05;1.73;;;2.80;99.90;;;;;;5112695;28;20053;-80
2022/01/20 10:35:26;;;;;;;8.70;1.55;;;2.80;99.90;;;;;;5095166;28;20057;-80
2022/01/20 10:38:01;;;;;;;6.60;1.55;;;2.70;99.90;;;;;;5124246;28;20108;-80
2022/01/20 10:40:27;;;;;;;8.45;1.75;;;2.80;99.90;;;;;;5112545;28;20059;-81
2022/01/20 10:42:54;;;;;;;7.20;1.40;;;2.90;99.90;;;;;;5130637;28;20404;-81
2022/01/20 10:45:25;;;;;;;10.52;1.90;;;2.80;99.90;;;;;;5098418;28;20050;-80
2022/01/20 10:47:57;;;;;;;12.65;2.42;;;3.40;99.90;;;;;;5098581;27;20047;-80
2022/01/20 10:50:29;;;;;;;6.72;1.60;;;2.80;99.90;;;;;;5112875;27;20043;-80
2022/01/20 10:52:55;;;;;;;17.65;2.60;;;3.30;99.90;;;;;;5097501;27;20096;-81
2022/01/20 10:55:33;;;;;;;11.73;2.40;;;3.00;99.90;;;;;;5094707;27;20063;-80
2022/01/20 10:58:29;;;;;;;10.95;1.88;;;3.30;99.90;;;;;;5100272;27;20279;-86
2022/01/20 11:00:56;;;;;;;11.15;2.08;;;3.00;99.90;;;;;;5080502;28;20625;-86
2022/01/20 11:03:24;;;;;;;8.85;1.73;;;3.00;99.90;;;;;;5102271;27;20131;-87
2022/01/20 11:05:53;;;;;;;5.40;1.50;;;2.80;99.90;;;;;;5110859;27;20506;-83
2022/01/20 11:08:19;;;;;;;6.28;1.60;;;2.80;99.90;;;;;;5096085;28;20138;-82
2022/01/20 11:10:46;;;;;;;10.40;2.03;;;2.80;99.90;;;;;;5098004;28;20115;-81
2022/01/20 11:13:13;;;;;;;14.82;2.17;;;2.90;99.90;;;;;;5095130;28;20496;-81
2022/01/20 11:15:40;;;;;;;10.10;1.48;;;3.10;99.90;;;;;;5093831;28;20148;-80
2022/01/20 11:18:09;;;;;;;8.05;1.85;;;3.20;99.90;;;;;;5094877;28;20048;-81
2022/01/20 11:20:45;;;;;;;8.10;1.75;;;3.30;99.90;;;;;;5096465;28;20571;-81
2022/01/20 11:23:12;;;;;;;10.23;1.75;;;3.40;99.90;;;;;;5102959;28;20047;-81
2022/01/20 11:25:43;;;;;;;8.27;1.35;;;3.40;99.90;;;;;;5099432;27;20143;-81
2022/01/20 11:28:09;;;;;;;10.40;1.92;;;3.30;99.90;;;;;;5110534;27;20040;-81
2022/01/20 11:30:39;;;;;;;10.02;1.75;;;3.20;99.90;;;;;;5110617;27;20399;-81
2022/01/20 11:33:11;;;;;;;14.82;1.83;;;3.20;99.90;;;;;;5133510;27;20468;-81
2022/01/20 11:35:51;;;;;;;9.10;1.80;;;3.60;99.90;;;;;;5105593;28;20058;-81
2022/01/20 11:38:22;;;;;;;10.27;2.10;;;4.00;99.90;;;;;;5081877;28;20442;-81
2022/01/20 11:41:00;;;;;;;11.05;2.30;;;4.40;99.90;;;;;;5108312;27;20051;-81
2022/01/20 11:43:35;;;;;;;12.65;2.47;;;4.70;99.90;;;;;;5108846;27;20051;-79
2022/01/20 11:46:14;;;;;;;14.43;1.90;;;4.90;99.90;;;;;;5110161;27;20059;-81
2022/01/20 11:49:02;;;;;;;12.43;2.15;;;5.60;99.90;;;;;;5098323;27;20111;-81
2022/01/20 11:51:57;;;;;;;14.32;2.25;;;5.40;99.90;;;;;;5089440;27;20069;-81
2022/01/20 11:54:31;;;;;;;9.77;1.55;;;5.40;99.90;;;;;;5095623;27;20061;-81
2022/01/20 11:57:08;;;;;;;13.93;2.47;;;5.20;99.90;;;;;;5099163;27;20073;-81
2022/01/20 11:59:52;;;;;;;12.45;2.00;;;4.50;99.90;;;;;;5097015;28;20051;-82
2022/01/20 12:02:36;;;;;;;13.48;2.40;;;4.00;99.90;;;;;;5107138;28;20051;-83
2022/01/20 12:05:15;;;;;;;17.42;2.47;;;3.70;99.90;;;;;;5096880;28;20055;-82
2022/01/20 12:07:40;;;;;;;10.23;2.03;;;3.60;99.90;;;;;;5099422;28;20040;-82
2022/01/20 12:10:10;;;;;;;11.02;1.98;;;3.80;99.90;;;;;;5093404;27;20052;-82
2022/01/20 12:12:39;;;;;;;10.73;2.25;;;3.90;99.90;;;;;;5114329;27;20476;-83
2022/01/20 12:15:09;;;;;;;12.25;2.35;;;4.00;99.90;;;;;;5112800;27;20050;-82
2022/01/20 12:17:36;;;;;;;15.77;2.15;;;4.10;99.90;;;;;;5112458;27;20046;-82
2022/01/20 12:20:03;;;;;;;12.88;2.30;;;4.90;99.90;;;;;;5098446;28;20504;-83
2022/01/20 12:22:29;;;;;;;11.50;2.10;;;5.10;99.90;;;;;;5092428;28;20489;-80
2022/01/20 12:24:56;;;;;;;10.07;2.17;;;5.60;99.90;;;;;;5075819;28;20054;-83
2022/01/20 12:27:24;;;;;;;9.38;1.85;;;5.00;99.90;;;;;;5108031;27;20035;-81
2022/01/20 12:29:51;;;;;;;13.15;2.22;;;4.60;99.90;;;;;;5085394;27;20069;-81
2022/01/20 12:32:19;;;;;;;10.02;1.63;;;4.30;99.90;;;;;;5094915;27;20096;-82
2022/01/20 12:35:02;;;;;;;10.77;1.83;;;4.10;99.90;;;;;;5109940;27;20047;-81
2022/01/20 12:37:46;;;;;;;10.45;2.38;;;3.90;99.90;;;;;;5094677;27;20536;-81
2022/01/20 12:40:22;;;;;;;10.68;1.58;;;4.00;99.90;;;;;;5105057;27;20039;-80
2022/01/20 12:42:49;;;;;;;15.05;1.77;;;4.20;99.90;;;;;;5103916;27;20495;-81
2022/01/20 12:48:13;;;;;;;10.55;2.67;;;5.40;99.90;;;;;;5109280;27;20054;-80
2022/01/20 12:50:38;;;;;;;12.90;2.10;;;5.80;99.90;;;;;;5107818;27;20035;-81
2022/01/20 12:53:04;;;;;;;7.60;1.85;;;5.80;99.90;;;;;;5104073;27;20104;-81
2022/01/20 12:55:30;;;;;;;13.13;2.00;;;5.50;99.90;;;;;;5092552;27;20047;-80
2022/01/20 12:57:59;;;;;;;12.85;2.10;;;5.50;99.90;;;;;;5093636;27;20051;-81
2022/01/20 13:00:25;;;;;;;12.48;2.70;;;5.30;99.90;;;;;;5104268;28;20051;-81
2022/01/20 13:02:51;;;;;;;7.70;1.92;;;5.10;99.90;;;;;;5086520;27;20108;-80
2022/01/20 13:05:19;;;;;;;7.43;1.75;;;5.10;99.90;;;;;;5072798;27;20044;-80
2022/01/20 13:07:51;;;;;;;9.70;2.20;;;5.10;99.90;;;;;;5092528;28;20040;-80
2022/01/20 13:10:22;;;;;;;10.43;2.08;;;5.00;99.90;;;;;;5108987;27;20043;-81
2022/01/20 13:12:50;;;;;;;11.38;2.35;;;5.40;99.90;;;;;;5113336;27;20039;-81
2022/01/20 13:15:22;;;;;;;14.55;2.72;;;5.90;99.90;;;;;;5093760;28;20058;-81
2022/01/20 13:18:01;;;;;;;10.88;2.60;;;5.70;99.90;;;;;;5076033;28;20055;-81
2022/01/20 13:20:27;;;;;;;17.05;2.50;;;5.40;99.90;;;;;;5092383;28;20039;-80
2022/01/20 13:23:09;;;;;;;12.07;2.10;;;5.10;99.90;;;;;;5103617;28;20070;-81
2022/01/20 13:25:40;;;;;;;15.52;2.20;;;5.20;99.90;;;;;;5092600;28;20059;-82
2022/01/20 13:28:11;;;;;;;11.30;2.05;;;5.00;99.90;;;;;;5112822;27;20518;-82
2022/01/20 13:30:50;;;;;;;15.32;2.00;;;5.40;99.90;;;;;;5095116;27;20066;-83
2022/01/20 13:33:24;;;;;;;16.73;2.75;;;5.70;99.90;;;;;;5118589;27;20081;-82
2022/01/20 13:36:01;;;;;;;11.48;2.28;;;5.60;99.90;;;;;;5111597;28;20082;-82
2022/01/20 13:38:49;;;;;;;8.65;1.85;;;5.80;99.90;;;;;;5100913;28;20484;-82
2022/01/20 13:41:20;;;;;;;14.18;2.42;;;4.80;99.90;;;;;;5112163;27;20055;-84
2022/01/20 13:46:30;;;;;;;12.10;2.90;;;4.60;99.90;;;;;;5107610;28;20052;-82
2022/01/20 13:49:06;;;;;;;15.18;2.40;;;4.40;99.90;;;;;;5102050;28;20404;-82
2022/01/20 13:51:32;;;;;;;12.02;2.55;;;4.30;99.90;;;;;;5102457;28;20420;-83
2022/01/20 13:53:58;;;;;;;13.77;2.00;;;4.30;99.90;;;;;;5104322;28;20058;-82
2022/01/20 13:56:23;;;;;;;14.95;2.35;;;4.40;99.90;;;;;;5107429;28;20054;-83
2022/01/20 13:58:50;;;;;;;18.75;2.95;;;4.60;99.90;;;;;;5079182;28;20039;-82
2022/01/20 14:01:15;;;;;;;15.75;2.10;;;5.10;99.90;;;;;;5109558;28;20092;-86
2022/01/20 14:03:41;;;;;;;13.32;2.08;;;4.90;99.90;;;;;;5110576;28;20044;-81
2022/01/20 14:06:07;;;;;;;16.65;2.47;;;4.80;99.90;;;;;;5105671;28;20039;-81
2022/01/20 14:08:36;;;;;;;11.98;2.20;;;4.60;99.90;;;;;;5124530;28;20042;-84
2022/01/20 14:11:03;;;;;;;15.38;2.13;;;4.30;99.90;;;;;;5125859;28;20481;-84
2022/01/20 14:13:30;;;;;;;14.43;2.10;;;4.30;99.90;;;;;;5116501;28;20044;-84
2022/01/20 14:15:57;;;;;;;9.27;1.75;;;4.40;99.90;;;;;;5094437;28;20574;-84